Aérodrome :
LOGIN :

S'inscrire | Disclaimer

   EN    FR    IT 

 










Légende :    VFR   VFR Marginal   IFR   IFR Intensif   IFR Très Intensif
Visi : 
Plafond : 
>= 8 km
>= 3000ft
5 à 8 km
1000 à 3000 ft
1500m à 5 km
500 à 1000 ft
800 à 1500m
200 à 500 ft
< 800m
< 200 ft
Symboles :   Orages  Brouillard  Fortes neiges  Fortes précipitations  Vent > 20 kt
SIGMETs :   Divers  Orages  Givrage  Turbulence  Onde Orograph.  Cendres Volcan.






- Altitude de l'aérodrome : 16 ft
- Code IATA : SDR


LEXJ - Santander Cantabria

DERNIER METAR :
  • 151630Z 36005KT 300V050 9999 BKN036 21/15 Q1023

METARs EXPIRÉS :
  • 151600Z 35005KT 290V030 9999 FEW032 BKN044 21/15 Q1023
  • 151530Z 36005KT 310V050 9999 FEW030 BKN043 21/15 Q1023
  • 151500Z 35005KT 290V040 9999 FEW030 BKN043 21/15 Q1023
  • 151430Z 36005KT 300V050 9999 FEW032 BKN043 21/16 Q1023
  • 151400Z 02005KT 330V060 9999 FEW025 BKN042 22/15 Q1023

TAF TAF LEXJ
Valide du 15 à 15h jusqu'au 16 à 15h UTC


151400Z 1515/1615 36005KT 9000 SCT025 SCT040 TX22/1615Z TN16/1605Z
PROB40
TEMPO 1522/1607 BKN010



MET'MAP, la Météo Aéronautique d'un coup d'oeil ! - Copyright ORBIFLY Décembre 2007 - Disclaimer

ORBIFLY MET'MAP TEAM :

Programmation & Développement : Alexandra Zaïnal
Sur une idée originale de : Baudouin d'Aumeries
Assistance à la programmation : Marc-Olivier Méhu
Soutien technique & logistique : Manuel Goepfert

Contact : metmap@orbifly.com




SOURCES & CREDITS :

   NOAA